Time,TemperatureF,DewpointF,PressureIn,WindDirection,WindDirectionDegrees,WindSpeedMPH,WindSpeedGustMPH,Humidity,HourlyPrecipIn,Conditions,Clouds,dailyrainin,SoftwareType,DateUTC
2014-11-21 00:02:00,52.0,51.2,29.91,North,0,0.0,0.0,97,0.00,,---,0.00,VWS V14.00,2014-11-21 08:02:00,
2014-11-21 00:07:00,52.0,51.2,29.91,NNW,338,0.0,1.1,97,0.00,,---,0.00,VWS V14.00,2014-11-21 08:07:00,
2014-11-21 00:12:00,52.0,51.2,29.91,NNW,338,0.0,0.0,97,0.00,,---,0.00,VWS V14.00,2014-11-21 08:12:00,
2014-11-21 00:17:00,51.8,51.0,29.91,NNW,338,0.0,0.0,97,0.00,,---,0.00,VWS V14.00,2014-11-21 08:17:00,
2014-11-21 00:23:00,51.8,51.0,29.91,NNW,338,0.0,1.3,97,0.00,,---,0.00,VWS V14.00,2014-11-21 08:23:00,
2014-11-21 00:28:00,51.8,51.0,29.91,NNW,338,0.0,0.0,97,0.00,,---,0.00,VWS V14.00,2014-11-21 08:28:00,
2014-11-21 00:33:00,51.6,50.8,29.91,NNW,338,0.0,0.0,97,0.00,,---,0.00,VWS V14.00,2014-11-21 08:33:00,
2014-11-21 00:38:00,51.6,50.8,29.91,NNW,338,0.0,0.0,97,0.00,,---,0.00,VWS V14.00,2014-11-21 08:38:00,
2014-11-21 00:44:00,51.6,50.8,29.91,NNW,338,0.0,0.0,97,0.00,,---,0.00,VWS V14.00,2014-11-21 08:44:00,
2014-11-21 00:49:00,51.6,50.8,29.91,NNW,338,0.0,0.0,97,0.00,,---,0.00,VWS V14.00,2014-11-21 08:49:00,
2014-11-21 00:55:00,51.6,50.8,29.91,NNW,338,0.0,0.0,97,0.00,,---,0.00,VWS V14.00,2014-11-21 08:55:00,
2014-11-21 01:00:00,51.6,50.8,29.91,NNW,338,0.0,0.0,97,0.00,,---,0.00,VWS V14.00,2014-11-21 09:00:00,
2014-11-21 01:05:00,51.6,50.8,29.91,NNW,338,0.0,0.0,97,0.00,,---,0.00,VWS V14.00,2014-11-21 09:05:00,
2014-11-21 01:10:00,51.6,50.8,29.91,NNW,338,0.0,0.0,97,0.00,,---,0.00,VWS V14.00,2014-11-21 09:10:00,
2014-11-21 01:16:00,51.6,50.8,29.91,NNW,338,0.0,1.3,97,0.00,,---,0.00,VWS V14.00,2014-11-21 09:16:00,
2014-11-21 01:21:00,51.6,50.8,29.91,NNW,338,0.0,0.0,97,0.00,,---,0.00,VWS V14.00,2014-11-21 09:21:00,
2014-11-21 01:26:00,51.6,50.8,29.91,NNW,338,0.0,0.0,97,0.00,,---,0.00,VWS V14.00,2014-11-21 09:26:00,
2014-11-21 01:31:00,51.6,51.1,29.91,NNW,338,0.0,0.0,98,0.00,,---,0.00,VWS V14.00,2014-11-21 09:31:00,
2014-11-21 01:37:00,51.6,51.1,29.91,NNW,338,0.0,0.0,98,0.00,,---,0.00,VWS V14.00,2014-11-21 09:37:00,
2014-11-21 01:42:00,51.6,51.1,29.91,NNW,338,0.0,0.0,98,0.00,,---,0.00,VWS V14.00,2014-11-21 09:42:00,
2014-11-21 01:47:00,51.6,51.1,29.91,NNW,338,0.0,0.0,98,0.00,,---,0.00,VWS V14.00,2014-11-21 09:47:00,
2014-11-21 01:52:00,51.6,51.1,29.91,West,270,0.0,0.0,98,0.00,,---,0.00,VWS V14.00,2014-11-21 09:52:00,
2014-11-21 01:57:00,51.6,51.1,29.91,West,270,0.0,0.0,98,0.00,,---,0.00,VWS V14.00,2014-11-21 09:57:00,
2014-11-21 02:02:00,51.6,51.1,29.91,West,270,0.0,0.0,98,0.00,,---,0.00,VWS V14.00,2014-11-21 10:02:00,
2014-11-21 02:08:00,51.6,51.1,29.91,West,270,0.0,0.0,98,0.00,,---,0.00,VWS V14.00,2014-11-21 10:08:00,
2014-11-21 02:13:00,51.6,51.1,29.91,West,270,0.0,0.0,98,0.00,,---,0.00,VWS V14.00,2014-11-21 10:13:00,
2014-11-21 02:18:00,51.6,51.1,29.91,NW,315,0.0,0.0,98,0.00,,---,0.00,VWS V14.00,2014-11-21 10:18:00,
2014-11-21 02:23:00,51.6,51.1,29.91,WNW,292,1.3,3.1,98,0.00,,---,0.00,VWS V14.00,2014-11-21 10:23:00,
2014-11-21 02:29:00,51.6,51.1,29.91,WNW,292,0.0,0.0,98,0.00,,---,0.00,VWS V14.00,2014-11-21 10:29:00,
2014-11-21 02:34:00,51.6,50.8,29.91,WNW,292,1.6,2.9,97,0.00,,---,0.00,VWS V14.00,2014-11-21 10:34:00,
2014-11-21 02:39:00,51.4,50.6,29.91,NW,315,0.0,1.6,97,0.00,,---,0.00,VWS V14.00,2014-11-21 10:39:00,
2014-11-21 02:44:00,51.4,50.6,29.91,NW,315,1.3,2.9,97,0.00,,---,0.00,VWS V14.00,2014-11-21 10:44:00,
2014-11-21 02:49:00,51.4,50.6,29.91,NW,315,0.0,1.6,97,0.00,,---,0.00,VWS V14.00,2014-11-21 10:49:00,
2014-11-21 02:55:00,51.4,50.6,29.91,NW,315,2.2,2.2,97,0.00,,---,0.00,VWS V14.00,2014-11-21 10:55:00,
2014-11-21 03:00:00,51.3,50.4,29.91,WNW,292,1.3,2.2,97,0.00,,---,0.00,VWS V14.00,2014-11-21 11:00:00,
2014-11-21 03:05:00,51.1,50.3,29.91,NW,315,0.0,0.0,97,0.00,,---,0.00,VWS V14.00,2014-11-21 11:05:00,
2014-11-21 03:11:00,50.9,50.1,29.91,WNW,292,0.0,0.0,97,0.00,,---,0.00,VWS V14.00,2014-11-21 11:11:00,
2014-11-21 03:16:00,50.7,49.9,29.91,WNW,292,0.0,1.6,97,0.00,,---,0.00,VWS V14.00,2014-11-21 11:16:00,
2014-11-21 03:21:00,50.5,49.7,29.91,WNW,292,0.0,0.0,97,0.00,,---,0.00,VWS V14.00,2014-11-21 11:21:00,
2014-11-21 03:26:00,50.4,49.5,29.91,NW,315,0.0,0.0,97,0.00,,---,0.00,VWS V14.00,2014-11-21 11:26:00,
2014-11-21 03:32:00,50.2,49.4,29.91,WNW,292,1.6,2.7,97,0.00,,---,0.00,VWS V14.00,2014-11-21 11:32:00,
2014-11-21 03:37:00,50.0,49.2,29.91,WNW,292,0.0,2.0,97,0.00,,---,0.00,VWS V14.00,2014-11-21 11:37:00,
2014-11-21 03:42:00,49.8,49.0,29.91,WNW,292,0.0,0.0,97,0.00,,---,0.00,VWS V14.00,2014-11-21 11:42:00,
2014-11-21 03:47:00,50.0,49.2,29.91,NW,315,1.3,2.9,97,0.00,,---,0.00,VWS V14.00,2014-11-21 11:47:00,
2014-11-21 03:52:00,50.2,49.4,29.91,WNW,292,2.2,4.7,97,0.00,,---,0.00,VWS V14.00,2014-11-21 11:52:00,
2014-11-21 03:57:00,50.2,49.4,29.91,WNW,292,0.0,0.0,97,0.00,,---,0.00,VWS V14.00,2014-11-21 11:57:00,
2014-11-21 04:03:00,50.2,49.4,29.91,NW,315,2.7,4.3,97,0.00,,---,0.00,VWS V14.00,2014-11-21 12:03:00,